Time;durP1;ratioP1;P1;durP2;ratioP2;P2;SDS_P1;SDS_P2;PMS_P1;PMS_P2;Temp;Humidity;BMP_temperature;BMP_pressure;BME280_temperature;BME280_humidity;BME280_pressure;Samples;Min_cycle;Max_cycle;Signal;HPM_P1;HPM_P2
2021/09/03 00:00:08;;;;;;;;;;;;;;;18.62;100.00;99745.13;5106308;28;20297;-61
2021/09/03 00:02:34;;;;;;;;;;;;;;;18.66;100.00;99744.88;5102769;28;19919;-61
2021/09/03 00:04:59;;;;;;;;;;;;;;;18.57;100.00;99748.81;5099970;28;20342;-61
2021/09/03 00:07:24;;;;;;;;;;;;;;;18.42;100.00;99749.59;5087309;28;19912;-61
2021/09/03 00:09:49;;;;;;;;;;;;;;;18.52;100.00;99737.78;5102922;28;19915;-61
2021/09/03 00:12:15;;;;;;;;;;;;;;;18.65;100.00;99745.78;5102085;28;19912;-61
2021/09/03 00:14:40;;;;;;;;;;;;;;;18.68;100.00;99742.16;5108026;28;19916;-62
2021/09/03 00:17:07;;;;;;;;;;;;;;;18.65;100.00;99740.56;5090114;28;20313;-61
2021/09/03 00:19:32;;;;;;;;;;;;;;;18.54;100.00;99742.91;5106184;28;20475;-62
2021/09/03 00:21:57;;;;;;;;;;;;;;;18.53;100.00;99749.06;5099328;28;19919;-62
2021/09/03 00:24:23;;;;;;;;;;;;;;;18.51;100.00;99737.84;5099877;28;19942;-62
2021/09/03 00:26:49;;;;;;;;;;;;;;;18.28;100.00;99742.50;5100589;28;20301;-62
2021/09/03 00:29:15;;;;;;;;;;;;;;;18.37;100.00;99741.19;5082663;28;20397;-61
2021/09/03 00:31:40;;;;;;;;;;;;;;;18.25;100.00;99740.06;5102242;28;19981;-62
2021/09/03 00:34:06;;;;;;;;;;;;;;;18.29;100.00;99730.31;5100250;28;20265;-62
2021/09/03 00:36:31;;;;;;;;;;;;;;;18.18;100.00;99736.09;5099617;28;19923;-62
2021/09/03 00:38:56;;;;;;;;;;;;;;;18.33;100.00;99729.22;5099484;28;19968;-62
2021/09/03 00:41:22;;;;;;;;;;;;;;;18.41;100.00;99726.25;5099230;28;19998;-62
2021/09/03 00:43:47;;;;;;;;;;;;;;;18.29;100.00;99727.69;5098130;28;19947;-62
2021/09/03 00:46:13;;;;;;;;;;;;;;;18.03;100.00;99729.06;5099518;28;19924;-62
2021/09/03 00:48:38;;;;;;;;;;;;;;;17.12;100.00;99723.88;5101216;28;19911;-62
2021/09/03 00:51:04;;;;;;;;;;;;;;;16.85;100.00;99736.44;5082004;28;20372;-62
2021/09/03 00:53:29;;;;;;;;;;;;;;;17.18;100.00;99724.53;5083908;28;20391;-62
2021/09/03 00:55:54;;;;;;;;;;;;;;;17.34;100.00;99728.91;5101194;28;19994;-62
2021/09/03 00:58:21;;;;;;;;;;;;;;;17.71;100.00;99721.91;5097171;28;19919;-62
2021/09/03 01:00:48;;;;;;;;;;;;;;;17.86;100.00;99716.88;5101397;28;19919;-62
2021/09/03 01:03:13;;;;;;;;;;;;;;;17.60;100.00;99723.34;5101258;28;19916;-62
2021/09/03 01:05:38;;;;;;;;;;;;;;;17.17;100.00;99717.63;5097912;28;19935;-62
2021/09/03 01:08:04;;;;;;;;;;;;;;;17.25;100.00;99720.72;5099579;28;19928;-61
2021/09/03 01:10:29;;;;;;;;;;;;;;;16.85;100.00;99726.03;5100350;28;19916;-62
2021/09/03 01:12:54;;;;;;;;;;;;;;;16.39;100.00;99729.84;5100775;28;19962;-61
2021/09/03 01:15:20;;;;;;;;;;;;;;;16.76;100.00;99725.56;5099364;28;19916;-61
2021/09/03 01:17:45;;;;;;;;;;;;;;;16.89;100.00;99724.13;5099660;28;20007;-62
2021/09/03 01:20:11;;;;;;;;;;;;;;;16.95;100.00;99717.81;5081178;28;19948;-62
2021/09/03 01:22:36;;;;;;;;;;;;;;;17.05;100.00;99706.88;5102510;28;20036;-61
2021/09/03 01:25:02;;;;;;;;;;;;;;;17.32;100.00;99714.28;5097450;28;19963;-62
2021/09/03 01:27:27;;;;;;;;;;;;;;;17.40;100.00;99721.72;5077845;28;19916;-62
2021/09/03 01:29:53;;;;;;;;;;;;;;;17.48;100.00;99709.19;5098897;28;19962;-61
2021/09/03 01:32:18;;;;;;;;;;;;;;;17.41;100.00;99708.63;5098770;28;19920;-62
2021/09/03 01:34:44;;;;;;;;;;;;;;;17.24;100.00;99708.59;5097896;28;19920;-61
2021/09/03 01:37:09;;;;;;;;;;;;;;;17.42;100.00;99712.91;5096404;28;19923;-62
2021/09/03 01:39:34;;;;;;;;;;;;;;;17.52;100.00;99715.94;5099929;28;19911;-62
2021/09/03 01:42:00;;;;;;;;;;;;;;;17.52;100.00;99706.34;5098222;28;19918;-62
2021/09/03 01:44:25;;;;;;;;;;;;;;;17.51;100.00;99709.03;5099601;28;19912;-61
2021/09/03 01:46:51;;;;;;;;;;;;;;;17.36;100.00;99710.63;5097159;28;19950;-62
2021/09/03 01:49:16;;;;;;;;;;;;;;;17.22;100.00;99706.09;5082365;28;19919;-62
2021/09/03 01:51:41;;;;;;;;;;;;;;;17.10;100.00;99704.91;5100115;28;19916;-61
2021/09/03 01:54:07;;;;;;;;;;;;;;;17.38;100.00;99708.81;5100480;28;19974;-61
2021/09/03 01:56:32;;;;;;;;;;;;;;;17.40;100.00;99701.72;5099294;28;20019;-62
2021/09/03 01:58:57;;;;;;;;;;;;;;;17.51;100.00;99694.22;5101130;28;20339;-62
2021/09/03 02:01:23;;;;;;;;;;;;;;;17.17;100.00;99699.41;5095702;28;19916;-62
2021/09/03 02:03:48;;;;;;;;;;;;;;;17.22;100.00;99700.88;5099784;28;20356;-62
2021/09/03 02:06:13;;;;;;;;;;;;;;;17.40;100.00;99693.91;5077560;28;20465;-62
2021/09/03 02:08:39;;;;;;;;;;;;;;;17.29;100.00;99693.63;5079895;28;20452;-61
2021/09/03 02:11:04;;;;;;;;;;;;;;;17.24;100.00;99695.59;5079211;28;19912;-62
2021/09/03 02:13:30;;;;;;;;;;;;;;;17.08;100.00;99695.47;5079736;28;20015;-62
2021/09/03 02:15:55;;;;;;;;;;;;;;;16.82;100.00;99694.13;5083373;28;20373;-62
2021/09/03 02:18:20;;;;;;;;;;;;;;;17.00;100.00;99687.22;5080169;28;20325;-62
2021/09/03 02:20:46;;;;;;;;;;;;;;;16.90;100.00;99689.38;5082833;28;20049;-62
2021/09/03 02:23:11;;;;;;;;;;;;;;;16.65;100.00;99689.66;5078793;28;19917;-61
2021/09/03 02:25:36;;;;;;;;;;;;;;;16.51;100.00;99685.06;5079090;28;19939;-61
2021/09/03 02:28:02;;;;;;;;;;;;;;;16.55;100.00;99691.84;5082013;28;19931;-62
2021/09/03 02:30:27;;;;;;;;;;;;;;;16.54;100.00;99684.97;5084963;28;20015;-62
2021/09/03 02:32:53;;;;;;;;;;;;;;;16.60;100.00;99683.81;5083449;28;20324;-62
2021/09/03 02:35:18;;;;;;;;;;;;;;;16.65;100.00;99682.72;5081173;28;19913;-62
2021/09/03 02:37:44;;;;;;;;;;;;;;;16.58;100.00;99677.84;5082984;28;19912;-62
2021/09/03 02:40:09;;;;;;;;;;;;;;;16.50;100.00;99679.03;5083948;28;19920;-61
2021/09/03 02:42:35;;;;;;;;;;;;;;;16.57;100.00;99671.81;5083916;28;19917;-62
2021/09/03 02:45:00;;;;;;;;;;;;;;;16.45;100.00;99667.19;5084061;28;20510;-62
2021/09/03 02:47:25;;;;;;;;;;;;;;;16.52;100.00;99665.97;5079576;28;19927;-62
2021/09/03 02:49:51;;;;;;;;;;;;;;;16.37;100.00;99664.91;5083988;28;19916;-62
2021/09/03 02:52:16;;;;;;;;;;;;;;;16.21;100.00;99661.31;5083855;28;20380;-62
2021/09/03 02:54:41;;;;;;;;;;;;;;;16.39;100.00;99664.84;5082531;28;19954;-61
2021/09/03 02:57:07;;;;;;;;;;;;;;;16.15;100.00;99657.25;5082474;28;19913;-61
2021/09/03 02:59:32;;;;;;;;;;;;;;;16.28;100.00;99661.00;5080357;28;19982;-62
2021/09/03 03:01:57;;;;;;;;;;;;;;;16.39;100.00;99657.06;5082214;28;19912;-61
2021/09/03 03:04:22;;;;;;;;;;;;;;;16.39;100.00;99654.44;5084009;28;19940;-62
2021/09/03 03:06:48;;;;;;;;;;;;;;;16.02;100.00;99653.50;5101053;28;19924;-61
2021/09/03 03:09:13;;;;;;;;;;;;;;;16.06;100.00;99653.28;5084093;28;20517;-62
2021/09/03 03:11:38;;;;;;;;;;;;;;;15.98;100.00;99646.75;5101488;28;19923;-62
2021/09/03 03:14:49;;;;;;;;;;;;;;;16.24;100.00;99645.59;5102365;28;20311;-62
2021/09/03 03:16:49;;;;;;;;;;;;;;;16.14;100.00;99634.75;5088266;28;20292;-62
2021/09/03 03:19:15;;;;;;;;;;;;;;;15.96;100.00;99638.16;5102926;28;19924;-61
2021/09/03 03:21:40;;;;;;;;;;;;;;;15.99;100.00;99638.06;5103344;28;19916;-61
2021/09/03 03:24:05;;;;;;;;;;;;;;;16.07;100.00;99638.53;5083213;28;19912;-62
2021/09/03 03:26:31;;;;;;;;;;;;;;;16.21;100.00;99637.94;5102277;28;20400;-61
2021/09/03 03:28:56;;;;;;;;;;;;;;;16.43;100.00;99640.41;5103136;28;19920;-62
2021/09/03 03:31:21;;;;;;;;;;;;;;;16.34;100.00;99627.84;5103870;28;19916;-61
2021/09/03 03:33:47;;;;;;;;;;;;;;;16.40;100.00;99627.53;5102814;28;19966;-62
2021/09/03 03:36:12;;;;;;;;;;;;;;;16.37;100.00;99619.88;5100806;28;19920;-62
2021/09/03 03:38:37;;;;;;;;;;;;;;;16.60;100.00;99627.44;5084013;28;19969;-62
2021/09/03 03:41:03;;;;;;;;;;;;;;;16.67;100.00;99628.00;5084922;28;19915;-62
2021/09/03 03:43:28;;;;;;;;;;;;;;;16.62;100.00;99625.63;5102519;28;19919;-62
2021/09/03 03:45:55;;;;;;;;;;;;;;;16.52;100.00;99625.22;5099294;28;20542;-62
2021/09/03 03:48:21;;;;;;;;;;;;;;;16.20;100.00;99624.09;5102555;28;19916;-62
2021/09/03 03:50:46;;;;;;;;;;;;;;;16.06;100.00;99622.13;5081553;28;20003;-62
2021/09/03 03:53:12;;;;;;;;;;;;;;;16.10;100.00;99623.69;5084919;28;20006;-62
2021/09/03 03:55:37;;;;;;;;;;;;;;;15.85;100.00;99621.31;5102495;28;19912;-62
2021/09/03 03:58:03;;;;;;;;;;;;;;;15.66;100.00;99625.56;5103245;28;19916;-61
2021/09/03 04:00:28;;;;;;;;;;;;;;;15.69;100.00;99623.72;5103185;28;19919;-62
2021/09/03 04:02:53;;;;;;;;;;;;;;;15.98;100.00;99620.75;5085170;28;19912;-62
2021/09/03 04:05:19;;;;;;;;;;;;;;;15.85;100.00;99623.91;5102052;28;19963;-61
2021/09/03 04:07:44;;;;;;;;;;;;;;;15.86;100.00;99617.78;5105837;28;19912;-61
2021/09/03 04:10:10;;;;;;;;;;;;;;;15.85;100.00;99618.72;5103995;28;19920;-61
2021/09/03 04:12:35;;;;;;;;;;;;;;;15.79;100.00;99621.56;5105022;28;19916;-61
2021/09/03 04:15:00;;;;;;;;;;;;;;;16.00;100.00;99617.19;5101813;28;19916;-61
2021/09/03 04:17:26;;;;;;;;;;;;;;;16.08;100.00;99619.47;5083176;28;19912;-52
2021/09/03 04:19:51;;;;;;;;;;;;;;;15.83;100.00;99614.50;5068020;28;19912;-62
2021/09/03 04:22:16;;;;;;;;;;;;;;;15.57;100.00;99613.00;5102500;28;19965;-62
2021/09/03 04:24:42;;;;;;;;;;;;;;;15.55;100.00;99615.63;5101794;28;19916;-62
2021/09/03 04:27:07;;;;;;;;;;;;;;;15.52;100.00;99612.34;5100842;28;19927;-62
2021/09/03 04:29:32;;;;;;;;;;;;;;;15.52;100.00;99605.41;5100393;28;19920;-62
2021/09/03 04:31:58;;;;;;;;;;;;;;;15.48;100.00;99612.47;5065395;28;19927;-61
2021/09/03 04:34:23;;;;;;;;;;;;;;;15.68;100.00;99610.78;5099558;28;19912;-62
2021/09/03 04:36:48;;;;;;;;;;;;;;;15.86;100.00;99611.78;5099391;28;19923;-62
2021/09/03 04:39:14;;;;;;;;;;;;;;;15.66;100.00;99607.41;5100719;28;19915;-62
2021/09/03 04:41:39;;;;;;;;;;;;;;;15.43;100.00;99606.63;5101233;28;20030;-61
2021/09/03 04:44:05;;;;;;;;;;;;;;;15.54;100.00;99606.19;5099386;28;19957;-61
2021/09/03 04:46:30;;;;;;;;;;;;;;;15.26;100.00;99607.34;5082842;28;19916;-61
2021/09/03 04:48:55;;;;;;;;;;;;;;;15.10;100.00;99613.22;5099598;28;19958;-62
2021/09/03 04:51:21;;;;;;;;;;;;;;;15.25;100.00;99604.81;5101316;28;19912;-62
2021/09/03 04:53:46;;;;;;;;;;;;;;;15.18;100.00;99606.81;5100621;28;20265;-62
2021/09/03 04:56:12;;;;;;;;;;;;;;;15.48;100.00;99609.88;5098587;28;19963;-61
2021/09/03 04:58:38;;;;;;;;;;;;;;;15.91;100.00;99611.56;5097467;28;19912;-61
2021/09/03 05:01:03;;;;;;;;;;;;;;;15.77;100.00;99601.78;5075801;28;19912;-61
2021/09/03 05:03:28;;;;;;;;;;;;;;;15.71;100.00;99610.66;5091952;28;19919;-61
2021/09/03 05:05:53;;;;;;;;;;;;;;;15.74;100.00;99600.16;5092579;28;20333;-62
2021/09/03 05:08:19;;;;;;;;;;;;;;;15.73;100.00;99601.06;5092579;28;20281;-62
2021/09/03 05:10:44;;;;;;;;;;;;;;;16.02;100.00;99597.19;5094475;28;20500;-62
2021/09/03 05:13:10;;;;;;;;;;;;;;;16.00;100.00;99600.75;5091136;28;19916;-62
2021/09/03 05:15:36;;;;;;;;;;;;;;;15.95;100.00;99600.97;5095987;28;20006;-62
2021/09/03 05:18:02;;;;;;;;;;;;;;;15.69;100.00;99602.06;5080217;28;19916;-62
2021/09/03 05:20:27;;;;;;;;;;;;;;;15.81;100.00;99592.94;5095340;28;19919;-62
2021/09/03 05:22:53;;;;;;;;;;;;;;;15.57;100.00;99602.59;5096428;28;20278;-61
2021/09/03 05:25:18;;;;;;;;;;;;;;;15.65;100.00;99598.78;5095280;28;19923;-61
2021/09/03 05:27:44;;;;;;;;;;;;;;;16.10;100.00;99600.28;5097123;28;19967;-61
2021/09/03 05:30:09;;;;;;;;;;;;;;;16.03;100.00;99604.09;5095999;28;19916;-61
2021/09/03 05:32:35;;;;;;;;;;;;;;;16.14;100.00;99613.97;5097462;28;19916;-61
2021/09/03 05:35:00;;;;;;;;;;;;;;;15.97;100.00;99606.09;5094095;28;20381;-62
2021/09/03 05:37:26;;;;;;;;;;;;;;;15.75;100.00;99604.44;5096412;28;19930;-61
2021/09/03 05:39:51;;;;;;;;;;;;;;;15.97;100.00;99600.91;5093986;28;19916;-61
2021/09/03 05:42:18;;;;;;;;;;;;;;;16.37;100.00;99605.13;5097069;28;19916;-61
2021/09/03 05:44:43;;;;;;;;;;;;;;;16.54;100.00;99606.94;5077634;28;19946;-62
2021/09/03 05:47:09;;;;;;;;;;;;;;;16.24;100.00;99609.22;5096911;28;20050;-62
2021/09/03 05:49:34;;;;;;;;;;;;;;;16.34;100.00;99607.03;5097624;28;19989;-61
2021/09/03 05:51:59;;;;;;;;;;;;;;;16.21;100.00;99606.75;5096286;28;20331;-62
2021/09/03 05:54:25;;;;;;;;;;;;;;;15.88;100.00;99604.75;5094294;28;20010;-61
2021/09/03 05:56:50;;;;;;;;;;;;;;;15.84;100.00;99609.22;5094453;28;19935;-62
2021/09/03 05:59:18;;;;;;;;;;;;;;;16.05;100.00;99609.19;5098895;28;19985;-62
2021/09/03 06:01:44;;;;;;;;;;;;;;;16.41;100.00;99605.84;5096790;28;19963;-61
2021/09/03 06:04:09;;;;;;;;;;;;;;;16.69;100.00;99605.38;5097722;28;20441;-60
2021/09/03 06:06:34;;;;;;;;;;;;;;;16.34;100.00;99604.44;5075710;28;19972;-61
2021/09/03 06:09:00;;;;;;;;;;;;;;;16.92;100.00;99604.28;5097255;28;20014;-62
2021/09/03 06:11:25;;;;;;;;;;;;;;;17.23;100.00;99605.41;5076848;28;19916;-62
2021/09/03 06:13:54;;;;;;;;;;;;;;;17.39;100.00;99595.06;5095577;28;19915;-61
2021/09/03 06:16:20;;;;;;;;;;;;;;;17.58;100.00;99603.63;5095390;28;19912;-61
2021/09/03 06:18:45;;;;;;;;;;;;;;;17.66;100.00;99613.66;5096705;28;19916;-61
2021/09/03 06:21:11;;;;;;;;;;;;;;;17.80;100.00;99605.97;5095680;28;19916;-62
2021/09/03 06:23:36;;;;;;;;;;;;;;;17.67;100.00;99597.94;5095042;28;19915;-61
2021/09/03 06:26:01;;;;;;;;;;;;;;;17.50;100.00;99598.81;5077639;28;19916;-61
2021/09/03 06:28:27;;;;;;;;;;;;;;;17.96;100.00;99595.63;5094884;28;20024;-61
2021/09/03 06:30:52;;;;;;;;;;;;;;;18.08;100.00;99600.16;5094281;28;20010;-61
2021/09/03 06:33:17;;;;;;;;;;;;;;;18.54;100.00;99604.66;5095985;28;20381;-62
2021/09/03 06:35:43;;;;;;;;;;;;;;;18.78;100.00;99605.09;5095908;28;19916;-62
2021/09/03 06:38:08;;;;;;;;;;;;;;;18.99;100.00;99603.03;5094417;28;20404;-62
2021/09/03 06:40:33;;;;;;;;;;;;;;;19.15;100.00;99603.81;5093614;28;20392;-61
2021/09/03 06:42:59;;;;;;;;;;;;;;;19.46;100.00;99596.00;5097340;28;19920;-61
2021/09/03 06:45:24;;;;;;;;;;;;;;;19.19;100.00;99597.50;5095590;28;19920;-62
2021/09/03 06:47:49;;;;;;;;;;;;;;;19.01;100.00;99596.78;5077877;28;20273;-62
2021/09/03 06:50:16;;;;;;;;;;;;;;;19.55;100.00;99591.06;5098430;28;19915;-62
2021/09/03 06:52:42;;;;;;;;;;;;;;;19.45;100.00;99597.75;5064839;28;20318;-61
2021/09/03 06:55:07;;;;;;;;;;;;;;;20.00;100.00;99596.22;5075191;28;19953;-61
2021/09/03 06:57:32;;;;;;;;;;;;;;;20.19;100.00;99590.72;5094253;28;19926;-61
2021/09/03 06:59:58;;;;;;;;;;;;;;;19.25;100.00;99592.84;5094159;28;20018;-61
2021/09/03 07:02:23;;;;;;;;;;;;;;;19.67;100.00;99586.03;5093944;28;19924;-61
2021/09/03 07:04:49;;;;;;;;;;;;;;;20.25;100.00;99585.06;5096248;28;19928;-61
2021/09/03 07:07:14;;;;;;;;;;;;;;;20.44;100.00;99584.78;5097230;28;19920;-61
2021/09/03 07:09:39;;;;;;;;;;;;;;;20.65;100.00;99586.03;5099424;28;19985;-62
2021/09/03 07:12:05;;;;;;;;;;;;;;;20.82;100.00;99590.19;5098178;28;19957;-61
2021/09/03 07:14:30;;;;;;;;;;;;;;;20.64;100.00;99591.38;5097641;28;19922;-63
2021/09/03 07:16:55;;;;;;;;;;;;;;;20.74;100.00;99578.53;5099175;28;19912;-61
2021/09/03 07:19:21;;;;;;;;;;;;;;;21.19;100.00;99579.91;5098344;28;19915;-61
2021/09/03 07:21:46;;;;;;;;;;;;;;;21.29;100.00;99583.59;5097512;28;19912;-61
2021/09/03 07:24:12;;;;;;;;;;;;;;;21.39;100.00;99582.97;5098181;28;19958;-60
2021/09/03 07:26:37;;;;;;;;;;;;;;;21.93;100.00;99577.53;5097108;28;20327;-61
2021/09/03 07:29:04;;;;;;;;;;;;;;;22.20;100.00;99581.78;5096287;28;19927;-61
2021/09/03 07:31:29;;;;;;;;;;;;;;;21.43;100.00;99576.63;5097055;28;19927;-61
2021/09/03 07:33:55;;;;;;;;;;;;;;;22.16;100.00;99585.56;5082036;28;19938;-62
2021/09/03 07:36:20;;;;;;;;;;;;;;;21.35;100.00;99584.97;5099245;28;19916;-61
2021/09/03 07:38:45;;;;;;;;;;;;;;;21.74;100.00;99583.22;5098764;28;19918;-61
2021/09/03 07:41:11;;;;;;;;;;;;;;;21.75;100.00;99584.06;5097351;28;20396;-61
2021/09/03 07:43:37;;;;;;;;;;;;;;;21.70;100.00;99582.59;5098859;28;19958;-61
2021/09/03 07:46:02;;;;;;;;;;;;;;;21.28;100.00;99586.31;5100143;28;20401;-61
2021/09/03 07:48:27;;;;;;;;;;;;;;;21.99;100.00;99581.53;5100162;28;20334;-61
2021/09/03 07:50:53;;;;;;;;;;;;;;;21.84;100.00;99583.41;5099721;28;20562;-61
2021/09/03 07:53:18;;;;;;;;;;;;;;;21.74;100.00;99582.41;5098637;28;19912;-61
2021/09/03 07:55:43;;;;;;;;;;;;;;;22.37;100.00;99576.19;5100703;28;19916;-62
2021/09/03 07:58:09;;;;;;;;;;;;;;;23.21;100.00;99579.69;5099684;28;19919;-62
2021/09/03 08:00:35;;;;;;;;;;;;;;;22.68;100.00;99584.50;5083215;28;19916;-62
2021/09/03 08:03:01;;;;;;;;;;;;;;;21.73;100.00;99594.63;5096955;28;20560;-61
2021/09/03 08:05:26;;;;;;;;;;;;;;;21.62;100.00;99589.28;5077633;28;20033;-61
2021/09/03 08:07:52;;;;;;;;;;;;;;;21.95;100.00;99591.38;5098228;28;19915;-61
2021/09/03 08:10:17;;;;;;;;;;;;;;;21.87;100.00;99593.69;5064710;28;19965;-62
2021/09/03 08:12:43;;;;;;;;;;;;;;;22.21;100.00;99591.31;5098413;28;19983;-61
2021/09/03 08:15:09;;;;;;;;;;;;;;;21.82;100.00;99595.78;5100211;28;19912;-62
2021/09/03 08:17:34;;;;;;;;;;;;;;;22.94;100.00;99599.19;5082066;28;19919;-61
2021/09/03 08:20:00;;;;;;;;;;;;;;;23.48;100.00;99581.19;5100240;28;20327;-61
2021/09/03 08:22:26;;;;;;;;;;;;;;;21.97;100.00;99584.25;5067164;28;19916;-62
2021/09/03 08:24:51;;;;;;;;;;;;;;;23.28;100.00;99588.78;5067139;28;19920;-62
2021/09/03 08:27:17;;;;;;;;;;;;;;;22.89;100.00;99585.53;5080513;28;20501;-62
2021/09/03 08:29:43;;;;;;;;;;;;;;;23.92;100.00;99583.03;5080617;28;19954;-61
2021/09/03 08:32:09;;;;;;;;;;;;;;;23.33;100.00;99589.31;5081422;28;19919;-62
2021/09/03 08:34:35;;;;;;;;;;;;;;;22.72;100.00;99583.31;5079225;28;19927;-62
2021/09/03 08:37:00;;;;;;;;;;;;;;;23.19;100.00;99578.97;5081429;28;20386;-62
2021/09/03 08:39:26;;;;;;;;;;;;;;;23.69;100.00;99581.34;5064885;28;19915;-62
2021/09/03 08:41:51;;;;;;;;;;;;;;;23.58;100.00;99584.78;5080097;28;19994;-62
2021/09/03 08:44:17;;;;;;;;;;;;;;;24.23;100.00;99582.44;5064795;28;20479;-62
2021/09/03 08:46:44;;;;;;;;;;;;;;;24.41;100.00;99575.69;5066903;28;20455;-62
2021/09/03 08:49:09;;;;;;;;;;;;;;;23.48;100.00;99583.81;5077807;28;19917;-61
2021/09/03 08:51:35;;;;;;;;;;;;;;;24.01;100.00;99576.22;5082838;28;20279;-62
2021/09/03 08:54:04;;;;;;;;;;;;;;;24.23;100.00;99585.91;5068897;28;19919;-62
2021/09/03 08:56:30;;;;;;;;;;;;;;;22.96;100.00;99588.53;5083844;28;19990;-61
2021/09/03 08:58:55;;;;;;;;;;;;;;;23.44;100.00;99582.38;5068705;28;19973;-62
2021/09/03 09:01:21;;;;;;;;;;;;;;;23.58;100.00;99582.16;5065812;28;19915;-62
2021/09/03 09:03:50;;;;;;;;;;;;;;;24.74;100.00;99580.03;5097495;28;19916;-62
2021/09/03 09:06:25;;;;;;;;;;;;;;;25.95;100.00;99576.94;5097013;28;20023;-62
2021/09/03 09:08:55;;;;;;;;;;;;;;;24.13;100.00;99584.94;5097392;28;20931;-62
2021/09/03 09:11:20;;;;;;;;;;;;;;;24.28;100.00;99578.47;5090713;28;19916;-62
2021/09/03 09:13:46;;;;;;;;;;;;;;;24.67;100.00;99578.03;5079594;28;19916;-62
2021/09/03 09:16:12;;;;;;;;;;;;;;;23.37;100.00;99584.63;5081488;28;19998;-62
2021/09/03 09:18:45;;;;;;;;;;;;;;;23.32;100.00;99584.97;5077744;28;19916;-62
2021/09/03 09:21:21;;;;;;;;;;;;;;;24.01;100.00;99584.13;5099653;28;20002;-62
2021/09/03 09:23:53;;;;;;;;;;;;;;;24.49;100.00;99580.38;5098870;28;20010;-62
2021/09/03 09:26:20;;;;;;;;;;;;;;;25.94;100.00;99572.66;5081402;28;20925;-62
2021/09/03 09:28:45;;;;;;;;;;;;;;;25.51;100.00;99575.47;5098868;28;19928;-62
2021/09/03 09:31:11;;;;;;;;;;;;;;;24.93;100.00;99579.38;5098160;28;19915;-62
2021/09/03 09:33:37;;;;;;;;;;;;;;;24.72;100.00;99573.22;5080903;28;19931;-62
2021/09/03 09:36:03;;;;;;;;;;;;;;;24.58;100.00;99580.44;5080402;28;20388;-61
2021/09/03 09:38:30;;;;;;;;;;;;;;;23.92;100.00;99571.69;5096762;28;19997;-62
2021/09/03 09:40:59;;;;;;;;;;;;;;;24.72;100.00;99574.06;5094389;28;19919;-62
2021/09/03 09:43:43;;;;;;;;;;;;;;;24.76;100.00;99580.75;5090151;28;20334;-62
2021/09/03 09:46:10;;;;;;;;;;;;;;;25.02;100.00;99567.22;5092305;28;19916;-62
2021/09/03 09:48:51;;;;;;;;;;;;;;;25.19;100.00;99563.22;5094699;28;19923;-61
2021/09/03 09:51:25;;;;;;;;;;;;;;;26.89;100.00;99555.44;5073647;28;19954;-62
2021/09/03 09:53:57;;;;;;;;;;;;;;;26.81;100.00;99564.06;5074755;28;20040;-62
2021/09/03 09:56:22;;;;;;;;;;;;;;;25.90;100.00;99560.69;5076223;28;20299;-62
2021/09/03 09:58:51;;;;;;;;;;;;;;;25.00;100.00;99556.81;5094258;28;20003;-62
2021/09/03 10:01:17;;;;;;;;;;;;;;;25.74;100.00;99563.78;5094688;28;20579;-62
2021/09/03 10:03:42;;;;;;;;;;;;;;;25.65;100.00;99554.84;5093785;28;19959;-61
2021/09/03 10:06:08;;;;;;;;;;;;;;;27.27;100.00;99557.22;5072939;28;19923;-62
2021/09/03 10:08:33;;;;;;;;;;;;;;;26.07;100.00;99556.59;5063369;28;19920;-61
2021/09/03 10:10:59;;;;;;;;;;;;;;;25.64;100.00;99552.38;5073435;28;19912;-61
2021/09/03 10:13:24;;;;;;;;;;;;;;;25.98;100.00;99544.19;5073777;28;19919;-62
2021/09/03 10:15:49;;;;;;;;;;;;;;;27.58;100.00;99549.06;5070648;28;19966;-62
2021/09/03 10:18:16;;;;;;;;;;;;;;;25.55;100.00;99543.44;5064124;28;19916;-62
2021/09/03 10:20:41;;;;;;;;;;;;;;;26.92;100.00;99539.31;5071575;28;19916;-62
2021/09/03 10:23:07;;;;;;;;;;;;;;;26.78;100.00;99542.41;5076505;28;19916;-62
2021/09/03 10:25:40;;;;;;;;;;;;;;;27.01;100.00;99538.47;5091137;28;19930;-62
2021/09/03 10:28:06;;;;;;;;;;;;;;;27.54;100.00;99529.16;5050502;28;19970;-62
2021/09/03 10:30:32;;;;;;;;;;;;;;;27.19;100.00;99540.41;5091519;28;19916;-62
2021/09/03 10:33:10;;;;;;;;;;;;;;;26.54;100.00;99533.03;5072929;28;19974;-62
2021/09/03 10:35:36;;;;;;;;;;;;;;;29.17;100.00;99527.41;5078224;28;19926;-62
2021/09/03 10:38:08;;;;;;;;;;;;;;;29.40;87.84;99529.53;5089016;28;19916;-62
2021/09/03 10:40:33;;;;;;;;;;;;;;;25.53;100.00;99519.00;5073174;28;20313;-62
2021/09/03 10:42:59;;;;;;;;;;;;;;;26.26;100.00;99517.03;5093869;28;19916;-62
2021/09/03 10:45:26;;;;;;;;;;;;;;;27.90;100.00;99518.75;5076043;28;19970;-62
2021/09/03 10:47:57;;;;;;;;;;;;;;;28.09;100.00;99515.97;5093655;28;19934;-62
2021/09/03 10:50:37;;;;;;;;;;;;;;;27.83;100.00;99512.34;5093554;28;19923;-61
2021/09/03 10:53:06;;;;;;;;;;;;;;;27.01;100.00;99512.03;5089810;28;19920;-61
2021/09/03 10:55:48;;;;;;;;;;;;;;;27.51;100.00;99505.66;5079929;28;19915;-61
2021/09/03 10:58:34;;;;;;;;;;;;;;;26.76;100.00;99513.47;5081537;28;19982;-62
2021/09/03 11:01:11;;;;;;;;;;;;;;;28.91;100.00;99500.00;5030325;28;19926;-62
2021/09/03 11:03:39;;;;;;;;;;;;;;;28.30;100.00;99505.09;5089474;28;19926;-61
2021/09/03 11:06:05;;;;;;;;;;;;;;;27.10;100.00;99500.59;5091842;28;20108;-62
2021/09/03 11:08:49;;;;;;;;;;;;;;;28.29;100.00;99499.97;5075562;28;20314;-61
2021/09/03 11:11:34;;;;;;;;;;;;;;;28.69;98.08;99494.22;5065844;28;20435;-61
2021/09/03 11:14:09;;;;;;;;;;;;;;;29.58;98.38;99495.81;5097672;28;19970;-61
2021/09/03 11:16:44;;;;;;;;;;;;;;;28.61;100.00;99491.50;5095742;28;19916;-62
2021/09/03 11:19:12;;;;;;;;;;;;;;;30.11;84.78;99490.34;5054254;28;19915;-62
2021/09/03 11:21:38;;;;;;;;;;;;;;;27.88;97.69;99497.72;5100548;28;19984;-62
2021/09/03 11:24:04;;;;;;;;;;;;;;;27.21;100.00;99490.84;5065900;28;19916;-62
2021/09/03 11:26:30;;;;;;;;;;;;;;;29.43;92.40;99485.94;5078078;28;19923;-62
2021/09/03 11:28:56;;;;;;;;;;;;;;;27.38;97.70;99487.47;5067839;28;19912;-62
2021/09/03 11:31:22;;;;;;;;;;;;;;;25.62;99.47;99493.63;5066064;28;20265;-61
2021/09/03 11:33:47;;;;;;;;;;;;;;;28.68;97.96;99487.25;5060068;28;19923;-62
2021/09/03 11:36:13;;;;;;;;;;;;;;;29.72;100.00;99486.44;5077517;28;19931;-61
2021/09/03 11:38:39;;;;;;;;;;;;;;;30.10;94.83;99486.84;5076581;28;19972;-61
2021/09/03 11:41:08;;;;;;;;;;;;;;;30.58;96.76;99485.25;5096892;28;19912;-62
2021/09/03 11:43:34;;;;;;;;;;;;;;;28.36;92.80;99487.78;5073430;28;19961;-61
2021/09/03 11:45:59;;;;;;;;;;;;;;;28.54;90.56;99491.28;5077991;28;20552;-61
2021/09/03 11:48:24;;;;;;;;;;;;;;;30.29;98.59;99488.41;5074991;28;20037;-62
2021/09/03 11:50:50;;;;;;;;;;;;;;;28.68;86.27;99484.59;5061595;28;20630;-62
2021/09/03 11:53:25;;;;;;;;;;;;;;;27.41;100.00;99481.88;5062793;28;19923;-62
2021/09/03 11:55:50;;;;;;;;;;;;;;;28.88;96.91;99476.47;5094534;28;19920;-62
2021/09/03 11:58:19;;;;;;;;;;;;;;;27.85;94.11;99479.47;5061640;28;20269;-62
2021/09/03 12:00:55;;;;;;;;;;;;;;;30.00;100.00;99472.91;5078047;28;19939;-62
2021/09/03 12:03:21;;;;;;;;;;;;;;;29.19;83.66;99488.31;5095579;28;19984;-62
2021/09/03 12:05:47;;;;;;;;;;;;;;;27.95;98.75;99474.94;5077616;28;19924;-62
2021/09/03 12:08:17;;;;;;;;;;;;;;;28.51;89.59;99475.69;5062908;28;20016;-62
2021/09/03 12:10:42;;;;;;;;;;;;;;;30.48;88.43;99475.81;5077766;28;20668;-61
2021/09/03 12:13:11;;;;;;;;;;;;;;;31.68;78.21;99471.41;5078240;28;19916;-62
2021/09/03 12:15:37;;;;;;;;;;;;;;;31.25;90.80;99474.41;5075668;28;19920;-62
2021/09/03 12:18:07;;;;;;;;;;;;;;;33.38;100.00;99473.94;5096269;28;19988;-62
2021/09/03 12:20:32;;;;;;;;;;;;;;;29.97;80.83;99474.06;5095463;28;20508;-62
2021/09/03 12:22:58;;;;;;;;;;;;;;;33.32;100.00;99470.16;5095477;28;20330;-62
2021/09/03 12:25:30;;;;;;;;;;;;;;;30.05;75.36;99467.91;5097440;28;19972;-62
2021/09/03 12:28:07;;;;;;;;;;;;;;;30.22;82.97;99471.41;5100573;28;20257;-62
2021/09/03 12:30:33;;;;;;;;;;;;;;;31.07;78.63;99460.50;5099415;28;19939;-62
2021/09/03 12:33:17;;;;;;;;;;;;;;;31.69;85.14;99465.09;5081183;28;19915;-62